Heidenheimer, TX (76533)

5:52 AM CDT on May 27, 2015 (GMT -0500)
RAWS | | Change Station
CLOSE
Current Station
Personal Weather Station
Location: Heidenheimer, TX
Elevation: 573 ft
Nearby Weather Stations

Elev 573 ft 31.06 °N, 97.35 °W | Updated 48 minutes ago

Thunderstorm
Thunderstorm
65 °F
Feels Like 65 °F
N
10
Wind Variable Wind from SSE
Gusts 17.0 mph

Today
High -- | Low -- °F
--% Chance of Precip.
Yesterday
High -- | Low -- °F
Precip. -- in
6:27 AM 8:25 PM
Waxing Gibbous, 66% visible
Pressure 29.99 in
Visibility 10.0 miles
Clouds Clear
Dew Point 64 °F
Humidity 97%
Rainfall in
Snow Depth Not available.
UV 0 out of 12
Pollen 5.00 out of 12
Air Quality Not available.
Flu Activity Sporadic
METAR KTPL 271035Z AUTO 16008KT 10SM CLR 18/15 A2999 RMK AO1 TSE02B03E18

More Conditions Fewer Conditions

Pressure 29.99 in
Visibility 10.0 miles
Clouds Clear
Dew Point 64 °F
Humidity 97%
Rainfall in
Snow Depth Not available.
UV 0 out of 12
Pollen 5.00 out of 12
Air Quality Not available.
Flu Activity Sporadic
METAR KTPL 271035Z AUTO 16008KT 10SM CLR 18/15 A2999 RMK AO1 TSE02B03E18

More Conditions Fewer Conditions

Nowcast | as of 3:13 am CDT on May 27, 2015

Scattered to numerous thunderstorms will move east across the region south of a line from Goldthwaite to Hillsboro to Greenville to Sulphur Springs. Cloud to ground lightning will accompany some of the storms. A few storms south of a Goldthwaite to Hamilton to Centerville line may produce wind gusts to 40 mph and small hail. Immediately to the north of the area of scattered showers and thunderstorms...some wind gusts of 30 to 40 mph out of the south will occur. Otherwise...skies will be mostly cloudy with temperatures remaining in the 60s to lower 70s through 8 am.

×

10-Day Weather Forecast

Almanac

Astronomy

May. 27, 2015 Rise Set
Actual Time
Civil Twilight
Nautical Twilight
Astronomical Twilight
Moon
Length of Visible Light
Length of Day
Tomorrow will be .
, % of the Moon is Illuminated

Today's Extremes

State Highs State Lows

Community

WunderPhotos

Upload Photos

1,824,637 photos uploaded!

WunderBlogs® & News

Nearby

Air Quality

  Air Quality AQ Index Pollutant
Not available.

Snow Depth

Station Depth Elevation

Earthquake Activity

City Distance Mag. Time & Date
Minimum magnitude displayed is 2.5.

Coastal Water Temperatures

Place Temperature

Stations

Nearby Weather Stations

Station Location Temp. Windchill Dew Point Humidity Wind Precip. Elev Updated Type